Time;durP1;ratioP1;P1;durP2;ratioP2;P2;SDS_P1;SDS_P2;PMS_P1;PMS_P2;Temp;Humidity;BMP_temperature;BMP_pressure;BME280_temperature;BME280_humidity;BME280_pressure;Samples;Min_cycle;Max_cycle;Signal;HPM_P1;HPM_P2
2022/12/02 00:04:24;;;;;;;23.17;9.07;;;5.70;99.90;;;;;;10136207;28;20046;-61
2022/12/02 00:09:30;;;;;;;23.00;10.30;;;5.80;99.90;;;;;;10139995;28;20490;-61
2022/12/02 00:14:25;;;;;;;21.70;7.97;;;5.80;99.90;;;;;;10146778;28;20025;-61
2022/12/02 00:19:15;;;;;;;20.13;8.95;;;5.70;99.90;;;;;;10130712;28;20423;-61
2022/12/02 00:24:06;;;;;;;23.30;9.63;;;5.70;99.90;;;;;;10139258;28;21707;-62
2022/12/02 00:28:57;;;;;;;25.05;10.18;;;5.70;99.90;;;;;;10135140;28;20028;-61
2022/12/02 00:33:48;;;;;;;20.38;8.02;;;5.70;99.90;;;;;;10146716;28;20107;-62
2022/12/02 00:38:38;;;;;;;22.90;9.88;;;5.70;99.90;;;;;;10130316;28;20083;-61
2022/12/02 00:48:38;;;;;;;22.13;8.32;;;5.80;99.90;;;;;;10137174;28;20505;-62
2022/12/02 00:53:29;;;;;;;26.92;10.68;;;5.70;99.90;;;;;;10138627;28;20041;-64
2022/12/02 00:58:20;;;;;;;30.30;10.48;;;5.70;99.90;;;;;;10145352;28;20025;-62
2022/12/02 01:03:11;;;;;;;24.55;8.85;;;5.70;99.90;;;;;;10149958;28;20033;-64
2022/12/02 01:08:01;;;;;;;28.33;11.25;;;5.70;99.90;;;;;;10138696;28;20055;-64
2022/12/02 01:12:52;;;;;;;22.92;9.73;;;5.60;99.90;;;;;;10134894;28;20081;-63
2022/12/02 01:17:43;;;;;;;23.35;10.60;;;5.60;99.90;;;;;;10138241;28;21482;-63
2022/12/02 01:22:33;;;;;;;23.90;9.60;;;5.60;99.90;;;;;;10143136;28;20036;-62
2022/12/02 01:27:24;;;;;;;27.88;10.35;;;5.60;99.90;;;;;;10136210;28;20031;-61
2022/12/02 01:32:15;;;;;;;21.83;8.88;;;5.70;99.90;;;;;;10134487;28;20043;-61
2022/12/02 01:37:05;;;;;;;18.02;8.50;;;5.70;99.90;;;;;;10141993;28;20516;-62
2022/12/02 01:41:56;;;;;;;19.63;10.18;;;5.70;99.90;;;;;;10146116;28;20012;-62
2022/12/02 01:46:47;;;;;;;22.27;9.48;;;5.70;99.90;;;;;;10132826;28;20032;-62
2022/12/02 01:51:37;;;;;;;24.88;9.23;;;5.70;99.90;;;;;;10128662;28;20052;-62
2022/12/02 01:56:28;;;;;;;20.25;9.52;;;5.80;99.90;;;;;;10133207;28;20044;-62
2022/12/02 02:01:23;;;;;;;29.67;10.85;;;5.80;99.90;;;;;;10143913;28;20016;-62
2022/12/02 02:06:14;;;;;;;24.13;9.73;;;5.80;99.90;;;;;;10132023;28;20131;-61
2022/12/02 02:11:04;;;;;;;28.58;9.73;;;5.90;99.90;;;;;;10134843;28;20486;-61
2022/12/02 02:15:55;;;;;;;25.98;11.20;;;5.80;99.90;;;;;;10135039;28;20024;-63
2022/12/02 02:20:46;;;;;;;23.77;10.43;;;5.70;99.90;;;;;;10143121;28;20031;-62
2022/12/02 02:25:39;;;;;;;27.25;10.30;;;5.60;99.90;;;;;;10126973;28;20127;-62
2022/12/02 02:30:32;;;;;;;23.85;9.15;;;5.60;99.90;;;;;;10137032;28;20020;-62
2022/12/02 02:35:23;;;;;;;20.85;9.65;;;5.60;99.90;;;;;;10135953;28;20467;-63
2022/12/02 02:40:16;;;;;;;27.52;11.80;;;5.70;99.90;;;;;;10136531;28;20021;-61
2022/12/02 02:45:07;;;;;;;25.45;11.70;;;5.60;99.90;;;;;;10108249;28;20029;-62
2022/12/02 02:49:58;;;;;;;28.60;10.95;;;5.60;99.90;;;;;;10128764;28;20016;-62
2022/12/02 02:54:48;;;;;;;30.77;10.88;;;5.50;99.90;;;;;;10131751;28;20056;-61
2022/12/02 02:59:41;;;;;;;22.13;10.88;;;5.60;99.90;;;;;;10132007;28;20032;-61
2022/12/02 03:04:32;;;;;;;27.38;10.63;;;5.60;99.90;;;;;;10147003;28;20036;-61
2022/12/02 03:09:24;;;;;;;26.80;9.65;;;5.60;99.90;;;;;;10139820;28;20103;-62
2022/12/02 03:14:16;;;;;;;25.95;10.90;;;5.60;99.90;;;;;;10139312;28;20036;-62
2022/12/02 03:19:07;;;;;;;26.77;10.10;;;5.60;99.90;;;;;;10139393;28;20027;-62
2022/12/02 03:23:59;;;;;;;28.90;10.88;;;5.50;99.90;;;;;;10135580;28;20044;-62
2022/12/02 03:28:52;;;;;;;29.35;10.32;;;5.60;99.90;;;;;;10139972;28;20058;-64
2022/12/02 03:33:43;;;;;;;25.55;13.20;;;5.60;99.90;;;;;;10145660;28;20426;-64
2022/12/02 03:38:34;;;;;;;23.25;10.07;;;5.50;99.90;;;;;;10139874;28;20036;-65
2022/12/02 03:43:25;;;;;;;19.25;9.45;;;5.50;99.90;;;;;;10150531;28;20701;-63
2022/12/02 03:48:21;;;;;;;20.42;8.80;;;5.50;99.90;;;;;;10147439;28;20447;-63
2022/12/02 03:53:11;;;;;;;21.17;9.90;;;5.40;99.90;;;;;;10135750;28;20111;-64
2022/12/02 03:58:06;;;;;;;26.88;10.68;;;5.50;99.90;;;;;;10122404;28;20119;-62
2022/12/02 04:02:57;;;;;;;25.57;10.63;;;5.50;99.90;;;;;;10139255;28;20125;-62
2022/12/02 04:07:47;;;;;;;23.90;10.00;;;5.50;99.90;;;;;;10135082;28;20025;-63
2022/12/02 04:12:38;;;;;;;25.70;11.20;;;5.50;99.90;;;;;;10139602;28;20252;-63
2022/12/02 04:17:29;;;;;;;25.42;10.45;;;5.50;99.90;;;;;;10134000;28;20505;-64
2022/12/02 04:22:19;;;;;;;33.22;12.43;;;5.50;99.90;;;;;;10132777;28;20055;-62
2022/12/02 04:27:10;;;;;;;27.65;10.75;;;5.60;99.90;;;;;;10142889;28;20028;-63
2022/12/02 04:32:00;;;;;;;26.70;11.30;;;5.50;99.90;;;;;;10130448;28;20550;-63
2022/12/02 04:36:51;;;;;;;24.77;10.52;;;5.50;99.90;;;;;;10133930;28;20024;-62
2022/12/02 04:41:42;;;;;;;28.50;11.13;;;5.60;99.90;;;;;;10140406;28;20044;-63
2022/12/02 04:46:32;;;;;;;24.75;12.18;;;5.60;99.90;;;;;;10140293;28;20330;-62
2022/12/02 04:51:23;;;;;;;25.50;11.82;;;5.60;99.90;;;;;;10140318;28;20488;-63
2022/12/02 04:56:13;;;;;;;22.70;10.88;;;5.50;99.90;;;;;;10135895;28;20056;-63
2022/12/02 05:01:04;;;;;;;32.97;10.77;;;5.50;99.90;;;;;;10135458;28;20557;-62
2022/12/02 05:05:55;;;;;;;28.85;9.95;;;5.50;99.90;;;;;;10130865;28;20040;-64
2022/12/02 05:10:45;;;;;;;23.50;10.68;;;5.40;99.90;;;;;;10134598;28;20896;-64
2022/12/02 05:15:36;;;;;;;26.73;10.80;;;5.40;99.90;;;;;;10137086;28;20503;-62
2022/12/02 05:20:26;;;;;;;28.17;10.98;;;5.30;99.90;;;;;;10137334;28;21069;-62
2022/12/02 05:25:17;;;;;;;18.80;9.20;;;5.30;99.90;;;;;;10128446;28;20040;-63
2022/12/02 05:30:10;;;;;;;34.35;9.45;;;5.20;99.90;;;;;;10134280;28;20040;-62
2022/12/02 05:35:00;;;;;;;19.88;10.35;;;5.20;99.90;;;;;;10139281;28;20033;-61
2022/12/02 05:39:52;;;;;;;30.92;10.80;;;5.20;99.90;;;;;;10112517;28;20028;-61
2022/12/02 05:44:43;;;;;;;25.60;10.63;;;5.20;99.90;;;;;;10142179;28;20058;-61
2022/12/02 05:49:36;;;;;;;27.20;10.20;;;5.20;99.90;;;;;;10129156;28;20017;-60
2022/12/02 05:54:28;;;;;;;29.83;9.48;;;5.30;99.90;;;;;;10135485;28;20156;-61
2022/12/02 05:59:20;;;;;;;22.23;9.13;;;5.40;99.90;;;;;;10130008;28;20102;-61
2022/12/02 06:04:23;;;;;;;23.13;9.10;;;5.50;99.90;;;;;;10125729;28;20122;-61
2022/12/02 06:09:27;;;;;;;23.55;10.38;;;5.40;99.90;;;;;;10132479;28;20020;-61
2022/12/02 06:14:20;;;;;;;27.73;10.10;;;5.40;99.90;;;;;;10127066;28;20032;-60
2022/12/02 06:19:41;;;;;;;26.90;12.25;;;5.40;99.90;;;;;;10128553;28;20113;-61
2022/12/02 06:24:33;;;;;;;24.23;10.32;;;5.50;99.90;;;;;;10151397;28;20043;-61
2022/12/02 06:29:25;;;;;;;25.95;9.88;;;5.40;99.90;;;;;;10148264;28;20581;-61
2022/12/02 06:34:54;;;;;;;24.10;11.35;;;5.50;99.90;;;;;;10145891;28;20030;-62
2022/12/02 06:39:54;;;;;;;29.35;9.68;;;5.50;99.90;;;;;;10011430;28;20029;-63
2022/12/02 06:45:03;;;;;;;29.17;10.07;;;5.60;99.90;;;;;;10104700;28;20080;-61
2022/12/02 06:49:54;;;;;;;23.90;10.20;;;5.60;99.90;;;;;;10132974;28;20124;-63
2022/12/02 06:54:45;;;;;;;29.42;9.68;;;5.60;99.90;;;;;;10144545;28;20148;-62
2022/12/02 06:59:36;;;;;;;24.02;10.80;;;5.50;99.90;;;;;;10132440;28;20039;-62
2022/12/02 07:04:46;;;;;;;24.67;10.38;;;5.50;99.90;;;;;;10146579;28;20591;-62
2022/12/02 07:09:41;;;;;;;24.42;10.52;;;5.50;99.90;;;;;;10144177;28;20074;-64
2022/12/02 07:14:54;;;;;;;25.93;10.93;;;5.40;99.90;;;;;;10137091;28;20131;-64
2022/12/02 07:19:47;;;;;;;25.25;10.50;;;5.40;99.90;;;;;;10131157;28;20597;-64
2022/12/02 07:24:39;;;;;;;22.13;11.73;;;5.30;99.90;;;;;;10127566;28;20036;-63
2022/12/02 07:29:30;;;;;;;23.88;10.60;;;5.30;99.90;;;;;;10131071;28;20033;-63
2022/12/02 07:34:21;;;;;;;23.35;8.82;;;5.30;99.90;;;;;;10131680;28;20066;-61
2022/12/02 07:39:11;;;;;;;26.65;11.50;;;5.30;99.90;;;;;;10123460;28;20099;-62
2022/12/02 07:44:02;;;;;;;26.55;11.27;;;5.30;99.90;;;;;;10129071;28;20422;-61
2022/12/02 07:48:53;;;;;;;27.05;10.95;;;5.30;99.90;;;;;;10136768;28;20102;-62
2022/12/02 07:53:44;;;;;;;24.80;9.77;;;5.40;99.90;;;;;;10145661;28;20054;-62
2022/12/02 07:58:34;;;;;;;31.45;13.05;;;5.40;99.90;;;;;;10146195;28;20067;-61
2022/12/02 08:03:25;;;;;;;25.98;10.15;;;5.40;99.90;;;;;;10147078;28;20047;-62
2022/12/02 08:08:16;;;;;;;22.92;9.48;;;5.50;99.90;;;;;;10143541;28;20114;-61
2022/12/02 08:13:07;;;;;;;31.00;10.55;;;5.40;99.90;;;;;;10135055;28;20371;-61
2022/12/02 08:17:57;;;;;;;25.90;10.25;;;5.40;99.90;;;;;;10138836;28;20032;-62
2022/12/02 08:22:48;;;;;;;23.45;10.40;;;5.50;99.90;;;;;;10134087;28;20060;-62
2022/12/02 08:27:39;;;;;;;25.75;11.50;;;5.50;99.90;;;;;;10126908;28;20475;-61
2022/12/02 08:32:30;;;;;;;24.17;10.18;;;5.70;99.90;;;;;;10138084;28;20031;-61
2022/12/02 08:37:20;;;;;;;23.13;10.05;;;5.60;99.90;;;;;;10133292;28;20040;-62
2022/12/02 08:42:11;;;;;;;25.00;10.05;;;5.50;99.90;;;;;;10142066;28;20020;-64
2022/12/02 08:47:02;;;;;;;23.08;9.23;;;5.70;99.90;;;;;;10132196;28;20418;-65
2022/12/02 08:51:53;;;;;;;24.38;9.52;;;5.60;99.90;;;;;;10134492;28;20035;-64
2022/12/02 08:56:45;;;;;;;24.55;9.93;;;5.70;99.90;;;;;;10130645;28;20064;-64
2022/12/02 09:01:36;;;;;;;116.78;46.30;;;6.10;99.90;;;;;;10135381;28;20070;-64
2022/12/02 09:06:27;;;;;;;200.15;64.65;;;6.10;99.90;;;;;;10133584;28;20047;-63
2022/12/02 09:11:18;;;;;;;31.98;12.88;;;6.20;99.90;;;;;;10125353;28;20033;-63
2022/12/02 09:16:08;;;;;;;24.50;10.55;;;6.10;99.90;;;;;;10130467;28;20099;-59
2022/12/02 09:20:59;;;;;;;23.60;10.27;;;5.90;99.90;;;;;;10130157;28;20017;-59
2022/12/02 09:25:50;;;;;;;25.63;10.85;;;5.80;99.90;;;;;;10135861;28;20426;-57
2022/12/02 09:30:41;;;;;;;19.85;9.48;;;5.70;99.90;;;;;;10138554;28;20078;-61
2022/12/02 09:35:31;;;;;;;29.48;10.48;;;5.70;99.90;;;;;;10132523;28;20119;-61
2022/12/02 09:40:22;;;;;;;24.45;10.00;;;5.70;99.90;;;;;;10136063;28;20102;-53
2022/12/02 09:45:14;;;;;;;28.23;10.60;;;5.80;99.90;;;;;;10123240;28;20051;-65
2022/12/02 09:50:05;;;;;;;25.10;11.05;;;5.70;99.90;;;;;;10105372;28;20044;-59
2022/12/02 09:54:58;;;;;;;29.67;11.05;;;5.70;99.90;;;;;;10128877;28;20040;-61
2022/12/02 09:59:51;;;;;;;20.85;9.38;;;5.80;99.90;;;;;;10121942;28;20050;-61
2022/12/02 10:04:42;;;;;;;23.92;9.82;;;5.80;99.90;;;;;;10128345;28;20484;-64
2022/12/02 10:09:33;;;;;;;24.02;9.35;;;5.80;99.90;;;;;;10126564;28;20095;-60
2022/12/02 10:14:24;;;;;;;25.25;10.05;;;5.70;99.90;;;;;;10129349;28;20017;-61
2022/12/02 10:19:18;;;;;;;30.10;11.20;;;5.70;99.90;;;;;;10126715;28;20021;-60
2022/12/02 10:24:11;;;;;;;27.80;9.65;;;5.60;99.90;;;;;;10127048;28;20036;-64
2022/12/02 10:29:06;;;;;;;24.65;9.00;;;5.70;99.90;;;;;;10132401;28;20514;-60
2022/12/02 10:34:00;;;;;;;18.92;10.20;;;5.70;99.90;;;;;;10134504;28;20031;-61
2022/12/02 10:38:51;;;;;;;21.35;8.68;;;5.80;99.90;;;;;;10139769;28;20142;-62
2022/12/02 10:43:44;;;;;;;20.52;9.27;;;5.90;99.90;;;;;;10137086;28;20150;-61
2022/12/02 10:48:35;;;;;;;23.35;9.05;;;5.90;99.90;;;;;;10147564;28;20016;-61
2022/12/02 10:53:28;;;;;;;24.90;9.55;;;5.90;99.90;;;;;;10131348;28;20435;-60
2022/12/02 10:58:26;;;;;;;25.48;9.65;;;5.80;99.90;;;;;;10136884;28;20028;-61
2022/12/02 11:03:19;;;;;;;24.98;10.80;;;5.90;99.90;;;;;;10137207;28;20040;-62
2022/12/02 11:08:20;;;;;;;19.30;8.85;;;5.90;99.90;;;;;;10136075;28;20544;-62
2022/12/02 11:13:16;;;;;;;18.67;9.27;;;6.00;99.90;;;;;;10137527;28;20029;-64
2022/12/02 11:18:27;;;;;;;21.42;9.02;;;6.10;99.90;;;;;;10136508;28;20029;-61
2022/12/02 11:23:23;;;;;;;26.20;9.30;;;6.00;99.90;;;;;;10079354;28;20055;-60
2022/12/02 11:28:16;;;;;;;23.85;9.55;;;5.90;99.90;;;;;;10143381;28;20107;-61
2022/12/02 11:33:12;;;;;;;21.20;10.23;;;5.80;99.90;;;;;;10143776;28;20017;-61
2022/12/02 11:38:26;;;;;;;21.60;9.90;;;5.80;99.90;;;;;;10143796;28;20622;-61
2022/12/02 11:44:01;;;;;;;26.73;8.15;;;5.90;99.90;;;;;;10152947;28;20033;-61
2022/12/02 11:48:54;;;;;;;26.60;9.38;;;5.90;99.90;;;;;;10135539;28;20060;-61
2022/12/02 11:53:50;;;;;;;23.08;10.52;;;5.90;99.90;;;;;;10121515;28;20130;-61
2022/12/02 11:58:44;;;;;;;22.15;9.75;;;5.90;99.90;;;;;;10142196;28;20038;-67
2022/12/02 12:03:40;;;;;;;27.45;10.43;;;5.90;99.90;;;;;;10142890;28;20402;-61
2022/12/02 12:08:31;;;;;;;26.42;10.38;;;5.80;99.90;;;;;;10142477;28;20021;-61
2022/12/02 12:13:23;;;;;;;23.65;9.60;;;5.70;99.90;;;;;;10140560;28;20039;-59
2022/12/02 12:18:40;;;;;;;29.30;11.27;;;5.70;99.90;;;;;;10141649;28;20016;-59
2022/12/02 12:23:34;;;;;;;28.75;8.45;;;5.80;99.90;;;;;;10140171;28;20105;-60
2022/12/02 12:28:30;;;;;;;20.65;7.65;;;5.80;99.90;;;;;;10135559;28;20032;-59
2022/12/02 12:33:20;;;;;;;;;;;5.80;99.90;;;;;;10136683;28;20449;-60
2022/12/02 12:38:11;;;;;;;17.98;7.68;;;5.90;99.90;;;;;;10138890;28;19915;-59
2022/12/02 12:43:02;;;;;;;29.27;10.52;;;6.00;99.90;;;;;;10140103;28;20036;-60
2022/12/02 12:47:53;;;;;;;22.88;9.65;;;6.10;99.90;;;;;;10140217;28;20036;-60
2022/12/02 12:52:43;;;;;;;18.52;8.32;;;6.10;99.90;;;;;;10138195;28;20032;-61
2022/12/02 12:57:34;;;;;;;23.15;9.15;;;6.00;99.90;;;;;;10153415;28;20113;-60
2022/12/02 13:02:25;;;;;;;22.70;8.93;;;5.90;99.90;;;;;;10148821;28;20380;-60
2022/12/02 13:07:15;;;;;;;19.85;8.38;;;5.90;99.90;;;;;;10140188;28;20032;-60
2022/12/02 13:12:06;;;;;;;23.48;8.98;;;6.00;99.90;;;;;;10139195;28;20031;-60
2022/12/02 13:16:57;;;;;;;16.90;7.45;;;6.00;99.90;;;;;;10139665;28;20565;-59
2022/12/02 13:21:47;;;;;;;21.85;8.90;;;5.90;99.90;;;;;;10139690;28;20567;-59
2022/12/02 13:26:38;;;;;;;25.50;9.75;;;6.00;99.90;;;;;;10139228;28;20078;-60
2022/12/02 13:31:29;;;;;;;22.00;8.35;;;6.00;99.90;;;;;;10120859;28;20088;-59
2022/12/02 13:36:19;;;;;;;23.00;10.15;;;6.00;99.90;;;;;;10140599;28;20039;-61
2022/12/02 13:41:10;;;;;;;19.23;7.75;;;6.00;99.90;;;;;;10139007;28;20422;-59
2022/12/02 13:46:01;;;;;;;22.90;8.55;;;6.00;99.90;;;;;;10137572;28;20097;-58
2022/12/02 13:50:52;;;;;;;22.02;8.70;;;6.10;99.90;;;;;;10135042;28;20038;-59
2022/12/02 13:55:42;;;;;;;20.08;7.95;;;6.10;99.90;;;;;;10150722;28;20064;-60
2022/12/02 14:00:33;;;;;;;26.42;9.10;;;6.00;99.90;;;;;;10138044;28;20020;-59
2022/12/02 14:05:23;;;;;;;30.15;9.00;;;5.90;99.90;;;;;;10137860;28;20051;-59
2022/12/02 14:10:14;;;;;;;19.63;8.50;;;5.80;99.90;;;;;;10145036;28;20487;-59
2022/12/02 14:15:05;;;;;;;21.30;9.02;;;5.70;99.90;;;;;;10138862;28;20026;-59
2022/12/02 14:19:56;;;;;;;24.92;8.77;;;5.80;99.90;;;;;;10139187;28;20103;-61
2022/12/02 14:24:46;;;;;;;27.65;9.18;;;5.90;99.90;;;;;;10138190;28;20142;-61
2022/12/02 14:29:38;;;;;;;24.83;9.88;;;5.80;99.90;;;;;;10139610;28;20056;-60
2022/12/02 14:34:29;;;;;;;28.13;10.20;;;5.80;99.90;;;;;;10128287;28;20036;-60
2022/12/02 14:39:20;;;;;;;27.83;10.73;;;5.90;99.90;;;;;;10133008;28;20067;-60
2022/12/02 14:44:11;;;;;;;21.27;8.90;;;6.00;99.90;;;;;;10133985;28;20387;-59
2022/12/02 14:49:01;;;;;;;25.52;9.63;;;5.90;99.90;;;;;;10133662;28;20027;-57
2022/12/02 14:53:53;;;;;;;22.48;8.73;;;5.90;99.90;;;;;;10132921;28;20052;-57
2022/12/02 14:58:44;;;;;;;22.55;9.55;;;5.90;99.90;;;;;;10135248;28;20116;-57
2022/12/02 15:03:34;;;;;;;24.85;10.35;;;5.90;99.90;;;;;;10134873;28;20119;-60
2022/12/02 15:08:25;;;;;;;28.02;9.55;;;5.90;99.90;;;;;;10135135;28;20032;-59
2022/12/02 15:13:16;;;;;;;32.17;10.43;;;5.80;99.90;;;;;;10134359;28;20017;-57
2022/12/02 15:18:07;;;;;;;24.77;9.82;;;5.70;99.90;;;;;;10135116;28;20027;-58
2022/12/02 15:22:57;;;;;;;27.50;10.63;;;5.70;99.90;;;;;;10135165;28;20036;-58
2022/12/02 15:27:48;;;;;;;21.90;9.52;;;5.80;99.90;;;;;;10134398;28;20478;-58
2022/12/02 15:32:39;;;;;;;23.52;9.30;;;5.80;99.90;;;;;;10114773;28;20342;-57
2022/12/02 15:37:29;;;;;;;17.98;8.27;;;5.80;99.90;;;;;;10133564;28;20048;-58
2022/12/02 15:42:20;;;;;;;26.80;8.95;;;5.70;99.90;;;;;;10132870;28;20021;-59
2022/12/02 15:47:11;;;;;;;24.83;9.07;;;5.70;99.90;;;;;;10132995;28;20132;-58
2022/12/02 15:52:02;;;;;;;28.70;9.88;;;5.70;99.90;;;;;;10133631;28;20019;-58
2022/12/02 15:56:55;;;;;;;29.33;10.98;;;5.60;99.90;;;;;;10132485;28;20053;-59
2022/12/02 16:01:45;;;;;;;21.77;9.27;;;5.60;99.90;;;;;;10135074;28;20032;-57
2022/12/02 16:06:36;;;;;;;22.42;8.63;;;5.70;99.90;;;;;;10135486;28;20112;-58
2022/12/02 16:11:27;;;;;;;19.65;7.85;;;5.70;99.90;;;;;;10139901;28;20474;-59
2022/12/02 16:16:18;;;;;;;17.30;6.95;;;5.80;99.90;;;;;;10146502;28;20055;-60
2022/12/02 16:21:09;;;;;;;20.30;7.72;;;5.70;99.90;;;;;;10143485;28;20503;-58
2022/12/02 16:25:59;;;;;;;17.30;7.55;;;5.70;99.90;;;;;;10141084;28;20349;-60
2022/12/02 16:30:50;;;;;;;19.83;7.93;;;5.60;99.90;;;;;;10135432;28;20154;-59
2022/12/02 16:35:41;;;;;;;13.10;7.22;;;5.50;99.90;;;;;;10138305;28;20136;-60
2022/12/02 16:40:31;;;;;;;13.52;6.72;;;5.50;99.90;;;;;;10137931;28;20081;-60
2022/12/02 16:45:22;;;;;;;14.10;5.32;;;5.40;99.90;;;;;;10137700;28;20074;-61
2022/12/02 16:50:16;;;;;;;14.05;6.35;;;5.40;99.90;;;;;;10145957;28;20064;-63
2022/12/02 16:55:07;;;;;;;12.07;5.78;;;5.50;99.90;;;;;;10122327;28;20052;-61
2022/12/02 16:59:58;;;;;;;12.88;5.53;;;5.50;99.90;;;;;;10134412;28;20028;-61
2022/12/02 17:04:50;;;;;;;13.70;4.75;;;5.40;99.90;;;;;;10135096;28;20033;-59
2022/12/02 17:09:41;;;;;;;7.78;5.05;;;5.40;99.90;;;;;;10132684;28;20466;-61
2022/12/02 17:14:32;;;;;;;9.48;4.68;;;5.50;99.90;;;;;;10139511;28;20028;-63
2022/12/02 17:19:22;;;;;;;7.82;3.88;;;5.40;99.90;;;;;;10139737;28;20020;-62
2022/12/02 17:24:13;;;;;;;9.68;4.10;;;5.30;99.90;;;;;;10143412;28;20036;-61
2022/12/02 17:29:04;;;;;;;10.77;4.13;;;5.30;99.90;;;;;;10139458;28;20036;-59
2022/12/02 17:33:54;;;;;;;10.00;4.53;;;5.30;99.90;;;;;;10139012;28;20071;-62
2022/12/02 17:38:51;;;;;;;8.50;4.22;;;5.30;99.90;;;;;;10144186;28;20498;-59
2022/12/02 17:43:41;;;;;;;7.47;3.95;;;5.40;99.90;;;;;;10138236;28;20534;-59
2022/12/02 17:48:32;;;;;;;7.38;4.07;;;5.30;99.90;;;;;;10138459;28;20035;-59
2022/12/02 17:53:23;;;;;;;4.82;3.70;;;5.40;99.90;;;;;;10117549;28;20033;-61
2022/12/02 17:58:14;;;;;;;8.70;3.72;;;5.30;99.90;;;;;;10137826;28;20036;-61
2022/12/02 18:03:04;;;;;;;10.52;3.80;;;5.30;99.90;;;;;;10137953;28;20275;-60
2022/12/02 18:07:55;;;;;;;10.60;3.88;;;5.40;99.90;;;;;;10138195;28;20511;-61
2022/12/02 18:12:45;;;;;;;9.10;3.75;;;5.30;99.90;;;;;;10137142;28;20600;-60
2022/12/02 18:17:36;;;;;;;6.65;3.92;;;5.40;99.90;;;;;;10136958;28;20020;-62
2022/12/02 18:22:27;;;;;;;6.28;3.65;;;5.30;99.90;;;;;;10137498;28;20016;-61
2022/12/02 18:27:17;;;;;;;6.13;3.28;;;5.40;99.90;;;;;;10134834;28;20110;-62
2022/12/02 18:32:08;;;;;;;6.97;3.35;;;5.30;99.90;;;;;;10134455;28;20043;-62
2022/12/02 18:36:58;;;;;;;8.95;4.03;;;5.30;99.90;;;;;;10138502;28;20028;-61
2022/12/02 18:41:49;;;;;;;6.28;3.85;;;5.30;99.90;;;;;;10137079;28;20126;-59
2022/12/02 18:46:40;;;;;;;8.88;3.65;;;5.30;99.90;;;;;;10140984;28;20085;-59
2022/12/02 18:51:30;;;;;;;7.82;3.25;;;5.30;99.90;;;;;;10133943;28;20059;-62
2022/12/02 18:56:21;;;;;;;5.57;3.83;;;5.20;99.90;;;;;;10119315;28;20056;-59
2022/12/02 19:01:12;;;;;;;6.35;3.35;;;5.20;99.90;;;;;;10120487;28;20111;-59
2022/12/02 19:06:02;;;;;;;6.78;3.63;;;5.20;99.90;;;;;;10128759;28;20025;-62
2022/12/02 19:10:53;;;;;;;7.63;3.28;;;5.20;99.90;;;;;;10119464;28;20036;-60
2022/12/02 19:15:44;;;;;;;6.57;3.30;;;5.20;99.90;;;;;;10129700;28;20536;-59
2022/12/02 19:20:34;;;;;;;4.65;2.95;;;5.30;99.90;;;;;;10135094;28;20388;-59
2022/12/02 19:25:27;;;;;;;6.75;3.25;;;5.20;99.90;;;;;;10122917;28;20516;-61
2022/12/02 19:30:18;;;;;;;5.05;2.70;;;5.30;99.90;;;;;;10135570;28;20436;-60
2022/12/02 19:35:09;;;;;;;5.43;3.50;;;5.20;99.90;;;;;;10142160;28;20021;-60
2022/12/02 19:39:59;;;;;;;5.85;3.28;;;5.20;99.90;;;;;;10135685;28;20021;-63
2022/12/02 19:44:50;;;;;;;4.78;2.78;;;5.20;99.90;;;;;;10137905;28;20521;-59
2022/12/02 19:49:42;;;;;;;7.00;3.38;;;5.20;99.90;;;;;;10143865;28;20033;-60
2022/12/02 19:54:33;;;;;;;8.05;3.85;;;5.20;99.90;;;;;;10125447;28;20052;-60
2022/12/02 19:59:23;;;;;;;6.13;3.15;;;5.20;99.90;;;;;;10143067;28;20024;-61
2022/12/02 20:04:14;;;;;;;6.50;4.20;;;5.20;99.90;;;;;;10146835;28;20036;-59
2022/12/02 20:09:04;;;;;;;5.97;3.60;;;5.30;99.90;;;;;;10125838;28;20074;-60
2022/12/02 20:13:55;;;;;;;6.18;3.80;;;5.20;99.90;;;;;;10142895;28;20088;-60
2022/12/02 20:18:46;;;;;;;6.88;3.80;;;5.20;99.90;;;;;;10125032;28;20028;-59
2022/12/02 20:23:36;;;;;;;8.02;3.58;;;5.10;99.90;;;;;;10142250;28;20093;-60
2022/12/02 20:28:27;;;;;;;7.40;3.42;;;5.10;99.90;;;;;;10112593;28;20035;-60
2022/12/02 20:33:18;;;;;;;10.77;4.10;;;5.10;99.90;;;;;;10120947;28;20024;-61
2022/12/02 20:38:08;;;;;;;8.77;3.75;;;5.20;99.90;;;;;;10114522;28;20092;-59
2022/12/02 20:42:59;;;;;;;5.70;2.67;;;5.10;99.90;;;;;;10121810;28;20474;-59
2022/12/02 20:47:50;;;;;;;7.25;3.70;;;5.10;99.90;;;;;;10109989;28;20025;-59
2022/12/02 20:52:40;;;;;;;15.27;5.32;;;5.10;99.90;;;;;;10112928;28;20013;-60
2022/12/02 20:57:31;;;;;;;6.53;3.00;;;5.10;99.90;;;;;;10133924;28;20068;-60
2022/12/02 21:02:22;;;;;;;7.10;3.28;;;5.00;99.90;;;;;;10120594;28;20032;-62
2022/12/02 21:07:12;;;;;;;3.55;1.92;;;5.00;99.90;;;;;;10133359;28;20046;-59
2022/12/02 21:12:03;;;;;;;4.82;2.28;;;4.90;99.90;;;;;;10136000;28;20111;-59
2022/12/02 21:16:54;;;;;;;4.97;2.65;;;4.90;99.90;;;;;;10135008;28;20044;-61
2022/12/02 21:21:44;;;;;;;5.47;2.65;;;5.00;99.90;;;;;;10139788;28;20032;-62
2022/12/02 21:26:35;;;;;;;4.78;2.88;;;5.10;99.90;;;;;;10138852;28;20033;-63
2022/12/02 21:31:26;;;;;;;5.07;2.40;;;4.80;99.90;;;;;;10139152;28;20379;-63
2022/12/02 21:36:16;;;;;;;4.82;3.28;;;4.80;99.90;;;;;;10144157;28;20028;-60
2022/12/02 21:41:07;;;;;;;6.93;3.55;;;4.80;99.90;;;;;;10143208;28;20440;-63
2022/12/02 21:45:59;;;;;;;6.05;3.03;;;4.80;99.90;;;;;;10138468;28;20466;-62
2022/12/02 21:50:49;;;;;;;8.15;3.17;;;4.70;99.90;;;;;;10138465;28;20021;-62
2022/12/02 21:55:40;;;;;;;3.22;2.17;;;4.70;99.90;;;;;;10141528;28;20510;-60
2022/12/02 22:00:31;;;;;;;3.63;2.13;;;4.70;99.90;;;;;;10138878;28;20078;-61
2022/12/02 22:05:21;;;;;;;5.03;2.40;;;4.70;99.90;;;;;;10139078;28;20135;-62
2022/12/02 22:10:24;;;;;;;4.70;2.55;;;4.60;99.90;;;;;;10138012;28;20024;-62
2022/12/02 22:15:16;;;;;;;5.07;2.33;;;4.60;99.90;;;;;;10132613;28;20047;-61
2022/12/02 22:20:08;;;;;;;4.70;2.17;;;4.60;99.90;;;;;;10141077;28;20569;-60
2022/12/02 22:24:59;;;;;;;4.10;2.55;;;4.50;99.90;;;;;;10137440;28;20025;-61
2022/12/02 22:29:49;;;;;;;7.32;2.47;;;4.50;99.90;;;;;;10136658;28;20445;-58
2022/12/02 22:34:40;;;;;;;5.05;2.75;;;4.50;99.90;;;;;;10138953;28;20624;-60
2022/12/02 22:39:31;;;;;;;8.00;2.80;;;4.50;99.90;;;;;;10136548;28;20498;-63
2022/12/02 22:44:21;;;;;;;5.65;2.17;;;4.50;99.90;;;;;;10136687;28;20038;-62
2022/12/02 22:49:12;;;;;;;7.85;3.15;;;4.60;99.90;;;;;;10140145;28;20036;-62
2022/12/02 22:54:03;;;;;;;4.38;2.33;;;4.50;99.90;;;;;;10136520;28;20110;-61
2022/12/02 22:58:53;;;;;;;4.60;2.25;;;4.50;99.90;;;;;;10139293;28;20081;-60
2022/12/02 23:03:44;;;;;;;5.10;2.65;;;4.50;99.90;;;;;;10137618;28;20036;-59
2022/12/02 23:08:35;;;;;;;4.38;2.33;;;4.60;99.90;;;;;;10143760;28;20028;-59
2022/12/02 23:13:25;;;;;;;2.55;2.08;;;4.60;99.90;;;;;;10131968;28;20047;-60
2022/12/02 23:18:16;;;;;;;5.15;2.47;;;4.50;99.90;;;;;;10136624;28;20111;-61
2022/12/02 23:23:07;;;;;;;4.80;2.28;;;4.50;99.90;;;;;;10144290;28;20041;-60
2022/12/02 23:27:57;;;;;;;7.15;2.45;;;4.40;99.90;;;;;;10143792;28;20021;-60
2022/12/02 23:32:48;;;;;;;4.38;2.20;;;4.40;99.90;;;;;;10144131;28;20017;-60
2022/12/02 23:37:38;;;;;;;3.88;2.05;;;4.30;99.90;;;;;;10144625;28;20039;-61
2022/12/02 23:42:29;;;;;;;5.47;2.60;;;4.30;99.90;;;;;;10134819;28;20032;-58
2022/12/02 23:47:20;;;;;;;5.20;3.63;;;4.40;99.90;;;;;;10153695;28;20364;-58
2022/12/02 23:52:10;;;;;;;6.05;2.85;;;4.40;99.90;;;;;;10143183;28;20024;-59
2022/12/02 23:57:01;;;;;;;4.97;2.72;;;4.40;99.90;;;;;;10158595;28;20052;-58
